sensor_id;sensor_type;location;lat;lon;timestamp;P1;durP1;ratioP1;P2;durP2;ratioP2
60344;SDS011;46188;52.324;8.032;2023-07-13T00:00:23;9.02;;;2.03;;
60344;SDS011;46188;52.324;8.032;2023-07-13T00:02:48;2.63;;;1.85;;
60344;SDS011;46188;52.324;8.032;2023-07-13T00:05:13;3.50;;;1.83;;
60344;SDS011;46188;52.324;8.032;2023-07-13T00:07:39;7.22;;;2.17;;
60344;SDS011;46188;52.324;8.032;2023-07-13T00:10:04;10.97;;;2.40;;
60344;SDS011;46188;52.324;8.032;2023-07-13T00:12:34;5.53;;;2.10;;
60344;SDS011;46188;52.324;8.032;2023-07-13T00:15:03;6.55;;;1.67;;
60344;SDS011;46188;52.324;8.032;2023-07-13T00:17:31;4.53;;;1.50;;
60344;SDS011;46188;52.324;8.032;2023-07-13T00:19:56;6.65;;;1.90;;
60344;SDS011;46188;52.324;8.032;2023-07-13T00:22:22;4.63;;;1.85;;
60344;SDS011;46188;52.324;8.032;2023-07-13T00:24:50;3.97;;;1.85;;
60344;SDS011;46188;52.324;8.032;2023-07-13T00:27:17;6.30;;;2.03;;
60344;SDS011;46188;52.324;8.032;2023-07-13T00:29:43;4.18;;;1.60;;
60344;SDS011;46188;52.324;8.032;2023-07-13T00:32:09;4.32;;;2.05;;
60344;SDS011;46188;52.324;8.032;2023-07-13T00:34:36;4.82;;;1.80;;
60344;SDS011;46188;52.324;8.032;2023-07-13T00:37:01;3.78;;;1.50;;
60344;SDS011;46188;52.324;8.032;2023-07-13T00:39:26;7.22;;;1.58;;
60344;SDS011;46188;52.324;8.032;2023-07-13T00:41:52;5.50;;;1.90;;
60344;SDS011;46188;52.324;8.032;2023-07-13T00:44:18;4.40;;;1.90;;
60344;SDS011;46188;52.324;8.032;2023-07-13T00:46:44;3.95;;;1.90;;
60344;SDS011;46188;52.324;8.032;2023-07-13T00:49:11;9.40;;;2.03;;
60344;SDS011;46188;52.324;8.032;2023-07-13T00:51:41;3.95;;;1.70;;
60344;SDS011;46188;52.324;8.032;2023-07-13T00:54:13;6.80;;;2.53;;
60344;SDS011;46188;52.324;8.032;2023-07-13T00:56:41;4.22;;;1.75;;
60344;SDS011;46188;52.324;8.032;2023-07-13T00:59:10;5.20;;;1.70;;
60344;SDS011;46188;52.324;8.032;2023-07-13T01:01:36;4.75;;;1.95;;
60344;SDS011;46188;52.324;8.032;2023-07-13T01:04:03;3.60;;;1.70;;
60344;SDS011;46188;52.324;8.032;2023-07-13T01:06:28;4.65;;;1.80;;
60344;SDS011;46188;52.324;8.032;2023-07-13T01:08:55;6.55;;;2.08;;
60344;SDS011;46188;52.324;8.032;2023-07-13T01:11:22;6.18;;;2.17;;
60344;SDS011;46188;52.324;8.032;2023-07-13T01:13:48;4.80;;;1.80;;
60344;SDS011;46188;52.324;8.032;2023-07-13T01:16:19;5.72;;;2.22;;
60344;SDS011;46188;52.324;8.032;2023-07-13T01:18:49;5.78;;;1.98;;
60344;SDS011;46188;52.324;8.032;2023-07-13T01:21:15;6.05;;;2.10;;
60344;SDS011;46188;52.324;8.032;2023-07-13T01:23:40;4.50;;;1.52;;
60344;SDS011;46188;52.324;8.032;2023-07-13T01:26:05;6.60;;;1.80;;
60344;SDS011;46188;52.324;8.032;2023-07-13T01:28:31;5.15;;;1.90;;
60344;SDS011;46188;52.324;8.032;2023-07-13T01:30:57;7.78;;;2.00;;
60344;SDS011;46188;52.324;8.032;2023-07-13T01:33:23;4.57;;;1.90;;
60344;SDS011;46188;52.324;8.032;2023-07-13T01:35:49;5.30;;;2.00;;
60344;SDS011;46188;52.324;8.032;2023-07-13T01:38:15;4.00;;;1.50;;
60344;SDS011;46188;52.324;8.032;2023-07-13T01:40:43;4.53;;;2.08;;
60344;SDS011;46188;52.324;8.032;2023-07-13T01:43:09;4.78;;;1.80;;
60344;SDS011;46188;52.324;8.032;2023-07-13T01:45:34;6.82;;;1.90;;
60344;SDS011;46188;52.324;8.032;2023-07-13T01:48:00;5.07;;;2.30;;
60344;SDS011;46188;52.324;8.032;2023-07-13T01:50:25;5.68;;;1.85;;
60344;SDS011;46188;52.324;8.032;2023-07-13T01:52:51;5.13;;;1.92;;
60344;SDS011;46188;52.324;8.032;2023-07-13T01:55:16;7.35;;;2.20;;
60344;SDS011;46188;52.324;8.032;2023-07-13T01:57:42;6.25;;;2.08;;
60344;SDS011;46188;52.324;8.032;2023-07-13T02:00:08;5.45;;;2.13;;
60344;SDS011;46188;52.324;8.032;2023-07-13T02:02:34;5.10;;;1.95;;
60344;SDS011;46188;52.324;8.032;2023-07-13T02:05:00;6.45;;;3.47;;
60344;SDS011;46188;52.324;8.032;2023-07-13T02:07:25;5.75;;;2.13;;
60344;SDS011;46188;52.324;8.032;2023-07-13T02:09:50;5.18;;;2.25;;
60344;SDS011;46188;52.324;8.032;2023-07-13T02:12:16;8.43;;;2.60;;
60344;SDS011;46188;52.324;8.032;2023-07-13T02:14:41;6.53;;;2.95;;
60344;SDS011;46188;52.324;8.032;2023-07-13T02:17:06;9.63;;;3.40;;
60344;SDS011;46188;52.324;8.032;2023-07-13T02:19:31;9.15;;;2.97;;
60344;SDS011;46188;52.324;8.032;2023-07-13T02:21:57;7.38;;;3.40;;
60344;SDS011;46188;52.324;8.032;2023-07-13T02:24:22;5.55;;;2.55;;
60344;SDS011;46188;52.324;8.032;2023-07-13T02:26:48;8.38;;;2.67;;
60344;SDS011;46188;52.324;8.032;2023-07-13T02:29:13;6.90;;;2.60;;
60344;SDS011;46188;52.324;8.032;2023-07-13T02:31:39;7.70;;;2.60;;
60344;SDS011;46188;52.324;8.032;2023-07-13T02:34:04;4.25;;;2.55;;
60344;SDS011;46188;52.324;8.032;2023-07-13T02:36:30;6.03;;;2.75;;
60344;SDS011;46188;52.324;8.032;2023-07-13T02:38:57;6.30;;;3.10;;
60344;SDS011;46188;52.324;8.032;2023-07-13T02:41:26;6.60;;;2.80;;
60344;SDS011;46188;52.324;8.032;2023-07-13T02:43:51;6.75;;;2.58;;
60344;SDS011;46188;52.324;8.032;2023-07-13T02:46:16;11.18;;;2.92;;
60344;SDS011;46188;52.324;8.032;2023-07-13T02:48:42;12.60;;;3.15;;
60344;SDS011;46188;52.324;8.032;2023-07-13T02:51:07;10.68;;;2.60;;
60344;SDS011;46188;52.324;8.032;2023-07-13T02:53:33;7.55;;;2.47;;
60344;SDS011;46188;52.324;8.032;2023-07-13T02:55:58;7.93;;;3.38;;
60344;SDS011;46188;52.324;8.032;2023-07-13T02:58:24;4.80;;;2.78;;
60344;SDS011;46188;52.324;8.032;2023-07-13T03:00:49;6.72;;;2.65;;
60344;SDS011;46188;52.324;8.032;2023-07-13T03:03:16;8.32;;;2.78;;
60344;SDS011;46188;52.324;8.032;2023-07-13T03:05:42;10.13;;;2.97;;
60344;SDS011;46188;52.324;8.032;2023-07-13T03:08:09;9.65;;;2.92;;
60344;SDS011;46188;52.324;8.032;2023-07-13T03:10:36;6.63;;;2.58;;
60344;SDS011;46188;52.324;8.032;2023-07-13T03:13:01;6.45;;;2.95;;
60344;SDS011;46188;52.324;8.032;2023-07-13T03:15:27;10.98;;;2.58;;
60344;SDS011;46188;52.324;8.032;2023-07-13T03:17:52;4.45;;;2.80;;
60344;SDS011;46188;52.324;8.032;2023-07-13T03:20:17;5.20;;;2.40;;
60344;SDS011;46188;52.324;8.032;2023-07-13T03:22:43;9.68;;;2.58;;
60344;SDS011;46188;52.324;8.032;2023-07-13T03:25:09;9.27;;;2.40;;
60344;SDS011;46188;52.324;8.032;2023-07-13T03:27:34;7.63;;;2.05;;
60344;SDS011;46188;52.324;8.032;2023-07-13T03:29:59;5.70;;;2.05;;
60344;SDS011;46188;52.324;8.032;2023-07-13T03:32:24;7.13;;;2.35;;
60344;SDS011;46188;52.324;8.032;2023-07-13T03:34:50;7.70;;;2.22;;
60344;SDS011;46188;52.324;8.032;2023-07-13T03:37:15;5.65;;;2.35;;
60344;SDS011;46188;52.324;8.032;2023-07-13T03:39:40;5.15;;;2.42;;
60344;SDS011;46188;52.324;8.032;2023-07-13T03:42:06;8.82;;;2.33;;
60344;SDS011;46188;52.324;8.032;2023-07-13T03:44:31;8.25;;;3.08;;
60344;SDS011;46188;52.324;8.032;2023-07-13T03:46:56;11.13;;;2.20;;
60344;SDS011;46188;52.324;8.032;2023-07-13T03:49:22;6.53;;;2.05;;
60344;SDS011;46188;52.324;8.032;2023-07-13T03:51:47;6.05;;;2.63;;
60344;SDS011;46188;52.324;8.032;2023-07-13T03:54:12;8.13;;;2.33;;
60344;SDS011;46188;52.324;8.032;2023-07-13T03:56:37;6.45;;;2.20;;
60344;SDS011;46188;52.324;8.032;2023-07-13T03:59:03;8.25;;;2.25;;
60344;SDS011;46188;52.324;8.032;2023-07-13T04:01:28;6.40;;;2.20;;
60344;SDS011;46188;52.324;8.032;2023-07-13T04:03:54;5.63;;;2.10;;
60344;SDS011;46188;52.324;8.032;2023-07-13T04:06:20;6.22;;;2.55;;
60344;SDS011;46188;52.324;8.032;2023-07-13T04:08:49;4.60;;;2.17;;
60344;SDS011;46188;52.324;8.032;2023-07-13T04:11:16;8.48;;;3.00;;
60344;SDS011;46188;52.324;8.032;2023-07-13T04:13:42;5.70;;;2.55;;
60344;SDS011;46188;52.324;8.032;2023-07-13T04:16:08;7.50;;;2.50;;
60344;SDS011;46188;52.324;8.032;2023-07-13T04:18:33;6.88;;;2.00;;
60344;SDS011;46188;52.324;8.032;2023-07-13T04:20:58;9.40;;;2.80;;
60344;SDS011;46188;52.324;8.032;2023-07-13T04:23:23;6.97;;;2.42;;
60344;SDS011;46188;52.324;8.032;2023-07-13T04:25:49;6.47;;;2.38;;
60344;SDS011;46188;52.324;8.032;2023-07-13T04:28:18;8.57;;;2.72;;
60344;SDS011;46188;52.324;8.032;2023-07-13T04:30:45;7.45;;;2.45;;
60344;SDS011;46188;52.324;8.032;2023-07-13T04:33:10;5.50;;;2.80;;
60344;SDS011;46188;52.324;8.032;2023-07-13T04:35:36;5.03;;;2.45;;
60344;SDS011;46188;52.324;8.032;2023-07-13T04:38:02;8.48;;;2.67;;
60344;SDS011;46188;52.324;8.032;2023-07-13T04:40:27;5.55;;;2.45;;
60344;SDS011;46188;52.324;8.032;2023-07-13T04:42:53;6.32;;;2.60;;
60344;SDS011;46188;52.324;8.032;2023-07-13T04:45:18;9.10;;;3.03;;
60344;SDS011;46188;52.324;8.032;2023-07-13T04:47:44;8.15;;;2.60;;
60344;SDS011;46188;52.324;8.032;2023-07-13T04:50:09;5.18;;;2.80;;
60344;SDS011;46188;52.324;8.032;2023-07-13T04:52:35;5.22;;;2.53;;
60344;SDS011;46188;52.324;8.032;2023-07-13T04:55:01;7.20;;;2.53;;
60344;SDS011;46188;52.324;8.032;2023-07-13T04:57:26;9.13;;;2.42;;
60344;SDS011;46188;52.324;8.032;2023-07-13T04:59:52;5.70;;;2.47;;
60344;SDS011;46188;52.324;8.032;2023-07-13T05:02:17;10.40;;;2.95;;
60344;SDS011;46188;52.324;8.032;2023-07-13T05:04:45;10.73;;;2.88;;
60344;SDS011;46188;52.324;8.032;2023-07-13T05:07:11;8.20;;;3.13;;
60344;SDS011;46188;52.324;8.032;2023-07-13T05:09:36;7.28;;;2.55;;
60344;SDS011;46188;52.324;8.032;2023-07-13T05:12:02;9.50;;;3.08;;
60344;SDS011;46188;52.324;8.032;2023-07-13T05:14:27;7.57;;;2.83;;
60344;SDS011;46188;52.324;8.032;2023-07-13T05:16:53;6.80;;;2.70;;
60344;SDS011;46188;52.324;8.032;2023-07-13T05:19:18;8.57;;;2.60;;
60344;SDS011;46188;52.324;8.032;2023-07-13T05:21:43;5.32;;;2.42;;
60344;SDS011;46188;52.324;8.032;2023-07-13T05:24:08;6.63;;;2.33;;
60344;SDS011;46188;52.324;8.032;2023-07-13T05:26:34;10.52;;;2.83;;
60344;SDS011;46188;52.324;8.032;2023-07-13T05:28:59;6.30;;;2.45;;
60344;SDS011;46188;52.324;8.032;2023-07-13T05:31:24;8.57;;;2.63;;
60344;SDS011;46188;52.324;8.032;2023-07-13T05:33:50;9.93;;;3.75;;
60344;SDS011;46188;52.324;8.032;2023-07-13T05:36:15;9.82;;;2.90;;
60344;SDS011;46188;52.324;8.032;2023-07-13T05:38:41;8.85;;;2.33;;
60344;SDS011;46188;52.324;8.032;2023-07-13T05:41:06;6.30;;;2.50;;
60344;SDS011;46188;52.324;8.032;2023-07-13T05:43:32;5.00;;;2.30;;
60344;SDS011;46188;52.324;8.032;2023-07-13T05:45:57;4.68;;;2.30;;
60344;SDS011;46188;52.324;8.032;2023-07-13T05:48:23;10.07;;;3.13;;
60344;SDS011;46188;52.324;8.032;2023-07-13T05:50:48;8.82;;;3.00;;
60344;SDS011;46188;52.324;8.032;2023-07-13T05:53:14;8.25;;;2.33;;
60344;SDS011;46188;52.324;8.032;2023-07-13T05:55:43;8.25;;;2.70;;
60344;SDS011;46188;52.324;8.032;2023-07-13T05:58:09;11.55;;;3.75;;
60344;SDS011;46188;52.324;8.032;2023-07-13T06:00:34;10.73;;;2.60;;
60344;SDS011;46188;52.324;8.032;2023-07-13T06:03:00;8.82;;;2.55;;
60344;SDS011;46188;52.324;8.032;2023-07-13T06:05:25;10.02;;;2.70;;
60344;SDS011;46188;52.324;8.032;2023-07-13T06:07:50;9.82;;;2.90;;
60344;SDS011;46188;52.324;8.032;2023-07-13T06:10:16;9.95;;;2.90;;
60344;SDS011;46188;52.324;8.032;2023-07-13T06:12:41;6.88;;;2.65;;
60344;SDS011;46188;52.324;8.032;2023-07-13T06:15:06;5.75;;;2.08;;
60344;SDS011;46188;52.324;8.032;2023-07-13T06:17:32;7.30;;;2.70;;
60344;SDS011;46188;52.324;8.032;2023-07-13T06:19:57;11.07;;;2.67;;
60344;SDS011;46188;52.324;8.032;2023-07-13T06:22:22;12.02;;;2.90;;
60344;SDS011;46188;52.324;8.032;2023-07-13T06:24:48;6.80;;;2.72;;
60344;SDS011;46188;52.324;8.032;2023-07-13T06:27:13;10.88;;;2.83;;
60344;SDS011;46188;52.324;8.032;2023-07-13T06:29:38;9.00;;;2.85;;
60344;SDS011;46188;52.324;8.032;2023-07-13T06:32:04;9.93;;;2.88;;
60344;SDS011;46188;52.324;8.032;2023-07-13T06:34:30;9.98;;;3.97;;
60344;SDS011;46188;52.324;8.032;2023-07-13T06:36:55;11.80;;;3.45;;
60344;SDS011;46188;52.324;8.032;2023-07-13T06:39:21;8.90;;;3.25;;
60344;SDS011;46188;52.324;8.032;2023-07-13T06:41:46;7.18;;;3.50;;
60344;SDS011;46188;52.324;8.032;2023-07-13T06:44:11;11.30;;;3.50;;
60344;SDS011;46188;52.324;8.032;2023-07-13T06:46:37;9.15;;;3.05;;
60344;SDS011;46188;52.324;8.032;2023-07-13T06:49:05;7.22;;;2.45;;
60344;SDS011;46188;52.324;8.032;2023-07-13T06:51:30;14.07;;;3.17;;
60344;SDS011;46188;52.324;8.032;2023-07-13T06:53:55;9.73;;;3.13;;
60344;SDS011;46188;52.324;8.032;2023-07-13T06:56:21;7.53;;;3.20;;
60344;SDS011;46188;52.324;8.032;2023-07-13T06:58:46;10.73;;;3.28;;
60344;SDS011;46188;52.324;8.032;2023-07-13T07:01:11;6.95;;;2.78;;
60344;SDS011;46188;52.324;8.032;2023-07-13T07:03:36;7.55;;;2.92;;
60344;SDS011;46188;52.324;8.032;2023-07-13T07:06:06;9.20;;;2.83;;
60344;SDS011;46188;52.324;8.032;2023-07-13T07:08:38;10.20;;;3.50;;
60344;SDS011;46188;52.324;8.032;2023-07-13T07:11:04;12.25;;;2.90;;
60344;SDS011;46188;52.324;8.032;2023-07-13T07:13:29;11.45;;;3.78;;
60344;SDS011;46188;52.324;8.032;2023-07-13T07:15:55;7.07;;;2.72;;
60344;SDS011;46188;52.324;8.032;2023-07-13T07:18:20;10.45;;;2.80;;
60344;SDS011;46188;52.324;8.032;2023-07-13T07:20:45;6.15;;;2.63;;
60344;SDS011;46188;52.324;8.032;2023-07-13T07:23:11;8.67;;;3.00;;
60344;SDS011;46188;52.324;8.032;2023-07-13T07:25:36;6.47;;;2.65;;
60344;SDS011;46188;52.324;8.032;2023-07-13T07:28:06;8.02;;;2.67;;
60344;SDS011;46188;52.324;8.032;2023-07-13T07:30:32;7.55;;;2.40;;
60344;SDS011;46188;52.324;8.032;2023-07-13T07:32:57;14.45;;;3.45;;
60344;SDS011;46188;52.324;8.032;2023-07-13T07:35:22;8.23;;;2.60;;
60344;SDS011;46188;52.324;8.032;2023-07-13T07:37:48;9.60;;;2.92;;
60344;SDS011;46188;52.324;8.032;2023-07-13T07:40:13;12.43;;;2.87;;
60344;SDS011;46188;52.324;8.032;2023-07-13T07:42:39;6.57;;;2.60;;
60344;SDS011;46188;52.324;8.032;2023-07-13T07:45:04;8.68;;;2.38;;
60344;SDS011;46188;52.324;8.032;2023-07-13T07:47:29;7.88;;;2.75;;
60344;SDS011;46188;52.324;8.032;2023-07-13T07:49:55;7.20;;;2.70;;
60344;SDS011;46188;52.324;8.032;2023-07-13T07:52:20;6.07;;;2.42;;
60344;SDS011;46188;52.324;8.032;2023-07-13T07:54:45;8.80;;;3.65;;
60344;SDS011;46188;52.324;8.032;2023-07-13T07:57:10;9.83;;;2.73;;
60344;SDS011;46188;52.324;8.032;2023-07-13T07:59:36;8.03;;;2.47;;
60344;SDS011;46188;52.324;8.032;2023-07-13T08:02:02;8.25;;;2.50;;
60344;SDS011;46188;52.324;8.032;2023-07-13T08:04:27;9.68;;;3.15;;
60344;SDS011;46188;52.324;8.032;2023-07-13T08:06:53;4.82;;;2.00;;
60344;SDS011;46188;52.324;8.032;2023-07-13T08:09:18;9.57;;;2.30;;
60344;SDS011;46188;52.324;8.032;2023-07-13T08:11:43;8.27;;;3.13;;
60344;SDS011;46188;52.324;8.032;2023-07-13T08:14:09;6.53;;;2.77;;
60344;SDS011;46188;52.324;8.032;2023-07-13T08:16:34;9.70;;;2.58;;
60344;SDS011;46188;52.324;8.032;2023-07-13T08:18:59;6.60;;;1.88;;
60344;SDS011;46188;52.324;8.032;2023-07-13T08:21:25;5.85;;;2.42;;
60344;SDS011;46188;52.324;8.032;2023-07-13T08:23:50;10.40;;;2.77;;
60344;SDS011;46188;52.324;8.032;2023-07-13T08:26:15;6.27;;;2.43;;
60344;SDS011;46188;52.324;8.032;2023-07-13T08:28:41;5.53;;;2.60;;
60344;SDS011;46188;52.324;8.032;2023-07-13T08:31:06;9.02;;;2.05;;
60344;SDS011;46188;52.324;8.032;2023-07-13T08:33:35;10.55;;;2.28;;
60344;SDS011;46188;52.324;8.032;2023-07-13T08:36:01;5.28;;;1.92;;
60344;SDS011;46188;52.324;8.032;2023-07-13T08:38:26;6.80;;;2.28;;
60344;SDS011;46188;52.324;8.032;2023-07-13T08:40:53;12.65;;;2.15;;
60344;SDS011;46188;52.324;8.032;2023-07-13T08:43:23;7.75;;;2.35;;
60344;SDS011;46188;52.324;8.032;2023-07-13T08:46:02;5.78;;;2.40;;
60344;SDS011;46188;52.324;8.032;2023-07-13T08:48:52;10.23;;;2.42;;
60344;SDS011;46188;52.324;8.032;2023-07-13T08:54:01;6.68;;;2.00;;
60344;SDS011;46188;52.324;8.032;2023-07-13T08:56:29;6.68;;;2.20;;
60344;SDS011;46188;52.324;8.032;2023-07-13T08:58:58;5.18;;;2.22;;
60344;SDS011;46188;52.324;8.032;2023-07-13T09:04:36;5.30;;;2.55;;
60344;SDS011;46188;52.324;8.032;2023-07-13T09:07:18;7.93;;;2.35;;
60344;SDS011;46188;52.324;8.032;2023-07-13T09:10:17;5.03;;;2.20;;
60344;SDS011;46188;52.324;8.032;2023-07-13T09:12:55;4.95;;;2.00;;
60344;SDS011;46188;52.324;8.032;2023-07-13T09:15:39;11.93;;;2.65;;
60344;SDS011;46188;52.324;8.032;2023-07-13T09:18:18;6.15;;;2.03;;
60344;SDS011;46188;52.324;8.032;2023-07-13T09:20:50;4.55;;;1.92;;
60344;SDS011;46188;52.324;8.032;2023-07-13T09:23:20;5.95;;;2.47;;
60344;SDS011;46188;52.324;8.032;2023-07-13T09:25:48;4.28;;;2.20;;
60344;SDS011;46188;52.324;8.032;2023-07-13T09:28:24;4.75;;;2.42;;
60344;SDS011;46188;52.324;8.032;2023-07-13T09:30:53;4.97;;;2.22;;
60344;SDS011;46188;52.324;8.032;2023-07-13T09:33:25;6.78;;;2.50;;
60344;SDS011;46188;52.324;8.032;2023-07-13T09:35:54;7.30;;;2.92;;
60344;SDS011;46188;52.324;8.032;2023-07-13T09:38:19;6.65;;;2.15;;
60344;SDS011;46188;52.324;8.032;2023-07-13T09:43:28;6.78;;;2.83;;
60344;SDS011;46188;52.324;8.032;2023-07-13T09:45:53;8.40;;;2.35;;
60344;SDS011;46188;52.324;8.032;2023-07-13T09:48:19;4.50;;;2.13;;
60344;SDS011;46188;52.324;8.032;2023-07-13T09:50:45;6.72;;;2.40;;
60344;SDS011;46188;52.324;8.032;2023-07-13T09:53:11;6.20;;;2.25;;
60344;SDS011;46188;52.324;8.032;2023-07-13T09:55:39;7.78;;;2.47;;
60344;SDS011;46188;52.324;8.032;2023-07-13T09:58:22;5.72;;;2.70;;
60344;SDS011;46188;52.324;8.032;2023-07-13T10:00:57;7.47;;;2.50;;
60344;SDS011;46188;52.324;8.032;2023-07-13T10:03:26;8.43;;;2.47;;
60344;SDS011;46188;52.324;8.032;2023-07-13T10:05:53;7.15;;;2.60;;
60344;SDS011;46188;52.324;8.032;2023-07-13T10:08:26;7.25;;;2.47;;
60344;SDS011;46188;52.324;8.032;2023-07-13T10:10:54;6.70;;;2.30;;
60344;SDS011;46188;52.324;8.032;2023-07-13T10:13:58;7.07;;;2.80;;
60344;SDS011;46188;52.324;8.032;2023-07-13T10:18:44;10.70;;;2.60;;
60344;SDS011;46188;52.324;8.032;2023-07-13T10:21:19;6.65;;;2.28;;
60344;SDS011;46188;52.324;8.032;2023-07-13T10:23:48;4.85;;;2.30;;
60344;SDS011;46188;52.324;8.032;2023-07-13T10:26:23;4.80;;;2.10;;
60344;SDS011;46188;52.324;8.032;2023-07-13T10:28:52;8.50;;;2.35;;
60344;SDS011;46188;52.324;8.032;2023-07-13T10:31:21;5.68;;;2.47;;
60344;SDS011;46188;52.324;8.032;2023-07-13T10:33:47;5.38;;;2.47;;
60344;SDS011;46188;52.324;8.032;2023-07-13T10:36:26;7.43;;;2.70;;
60344;SDS011;46188;52.324;8.032;2023-07-13T10:38:57;5.05;;;2.58;;
60344;SDS011;46188;52.324;8.032;2023-07-13T10:41:24;4.07;;;2.40;;
60344;SDS011;46188;52.324;8.032;2023-07-13T10:43:53;4.65;;;2.75;;
60344;SDS011;46188;52.324;8.032;2023-07-13T10:46:22;8.88;;;2.75;;
60344;SDS011;46188;52.324;8.032;2023-07-13T10:48:53;7.47;;;2.83;;
60344;SDS011;46188;52.324;8.032;2023-07-13T10:51:22;8.13;;;2.38;;
60344;SDS011;46188;52.324;8.032;2023-07-13T10:54:11;8.27;;;2.55;;
60344;SDS011;46188;52.324;8.032;2023-07-13T10:56:41;6.85;;;2.25;;
60344;SDS011;46188;52.324;8.032;2023-07-13T10:59:23;3.80;;;2.15;;
60344;SDS011;46188;52.324;8.032;2023-07-13T11:01:58;7.47;;;2.45;;
60344;SDS011;46188;52.324;8.032;2023-07-13T11:04:47;5.60;;;2.63;;
60344;SDS011;46188;52.324;8.032;2023-07-13T11:07:33;11.13;;;2.95;;
60344;SDS011;46188;52.324;8.032;2023-07-13T11:10:45;8.65;;;2.70;;
60344;SDS011;46188;52.324;8.032;2023-07-13T11:16:12;6.63;;;2.63;;
60344;SDS011;46188;52.324;8.032;2023-07-13T11:18:38;9.27;;;2.72;;
60344;SDS011;46188;52.324;8.032;2023-07-13T11:21:13;5.80;;;2.60;;
60344;SDS011;46188;52.324;8.032;2023-07-13T11:23:42;6.18;;;2.70;;
60344;SDS011;46188;52.324;8.032;2023-07-13T11:34:26;4.28;;;2.10;;
60344;SDS011;46188;52.324;8.032;2023-07-13T11:36:55;7.43;;;2.40;;
60344;SDS011;46188;52.324;8.032;2023-07-13T11:39:28;5.82;;;2.40;;
60344;SDS011;46188;52.324;8.032;2023-07-13T11:41:58;6.43;;;2.40;;
60344;SDS011;46188;52.324;8.032;2023-07-13T11:44:26;8.35;;;2.72;;
60344;SDS011;46188;52.324;8.032;2023-07-13T11:46:54;6.63;;;2.20;;
60344;SDS011;46188;52.324;8.032;2023-07-13T11:49:22;5.60;;;2.40;;
60344;SDS011;46188;52.324;8.032;2023-07-13T11:51:51;6.57;;;2.90;;
60344;SDS011;46188;52.324;8.032;2023-07-13T11:54:22;5.55;;;2.20;;
60344;SDS011;46188;52.324;8.032;2023-07-13T11:57:06;6.30;;;2.22;;
60344;SDS011;46188;52.324;8.032;2023-07-13T11:59:47;8.35;;;2.42;;
60344;SDS011;46188;52.324;8.032;2023-07-13T12:02:16;5.20;;;2.00;;
60344;SDS011;46188;52.324;8.032;2023-07-13T12:04:51;5.28;;;2.33;;
60344;SDS011;46188;52.324;8.032;2023-07-13T12:07:17;3.67;;;2.10;;
60344;SDS011;46188;52.324;8.032;2023-07-13T12:09:44;6.25;;;2.08;;
60344;SDS011;46188;52.324;8.032;2023-07-13T12:12:10;4.53;;;2.20;;
60344;SDS011;46188;52.324;8.032;2023-07-13T12:14:42;20.95;;;2.90;;
60344;SDS011;46188;52.324;8.032;2023-07-13T12:17:13;5.30;;;1.90;;
60344;SDS011;46188;52.324;8.032;2023-07-13T12:19:43;4.47;;;1.90;;
60344;SDS011;46188;52.324;8.032;2023-07-13T12:22:08;6.32;;;2.45;;
60344;SDS011;46188;52.324;8.032;2023-07-13T12:24:37;6.47;;;2.80;;
60344;SDS011;46188;52.324;8.032;2023-07-13T12:27:03;5.68;;;2.08;;
60344;SDS011;46188;52.324;8.032;2023-07-13T12:29:30;6.95;;;2.58;;
60344;SDS011;46188;52.324;8.032;2023-07-13T12:31:57;7.25;;;2.60;;
60344;SDS011;46188;52.324;8.032;2023-07-13T12:34:24;5.07;;;2.47;;
60344;SDS011;46188;52.324;8.032;2023-07-13T12:36:51;7.80;;;2.50;;
60344;SDS011;46188;52.324;8.032;2023-07-13T12:39:33;11.50;;;2.05;;
60344;SDS011;46188;52.324;8.032;2023-07-13T12:47:47;4.85;;;2.00;;
60344;SDS011;46188;52.324;8.032;2023-07-13T12:50:16;10.57;;;2.60;;
60344;SDS011;46188;52.324;8.032;2023-07-13T12:52:56;9.57;;;3.08;;
60344;SDS011;46188;52.324;8.032;2023-07-13T12:55:45;5.32;;;2.35;;
60344;SDS011;46188;52.324;8.032;2023-07-13T12:58:17;4.90;;;2.67;;
60344;SDS011;46188;52.324;8.032;2023-07-13T13:00:48;3.38;;;2.20;;
60344;SDS011;46188;52.324;8.032;2023-07-13T13:03:30;5.18;;;2.70;;
60344;SDS011;46188;52.324;8.032;2023-07-13T13:06:02;5.18;;;2.70;;
60344;SDS011;46188;52.324;8.032;2023-07-13T13:08:36;3.60;;;2.70;;
60344;SDS011;46188;52.324;8.032;2023-07-13T13:11:02;3.88;;;2.33;;
60344;SDS011;46188;52.324;8.032;2023-07-13T13:13:27;5.18;;;2.85;;
60344;SDS011;46188;52.324;8.032;2023-07-13T13:15:53;4.78;;;3.08;;
60344;SDS011;46188;52.324;8.032;2023-07-13T13:18:19;6.03;;;2.95;;
60344;SDS011;46188;52.324;8.032;2023-07-13T13:20:46;4.45;;;3.15;;
60344;SDS011;46188;52.324;8.032;2023-07-13T13:23:13;5.65;;;3.33;;
60344;SDS011;46188;52.324;8.032;2023-07-13T13:25:44;4.93;;;3.30;;
60344;SDS011;46188;52.324;8.032;2023-07-13T13:28:17;5.97;;;3.45;;
60344;SDS011;46188;52.324;8.032;2023-07-13T13:30:45;5.70;;;3.22;;
60344;SDS011;46188;52.324;8.032;2023-07-13T13:33:13;5.18;;;4.25;;
60344;SDS011;46188;52.324;8.032;2023-07-13T13:35:40;6.20;;;3.78;;
60344;SDS011;46188;52.324;8.032;2023-07-13T13:38:16;6.60;;;4.15;;
60344;SDS011;46188;52.324;8.032;2023-07-13T13:40:44;7.35;;;4.13;;
60344;SDS011;46188;52.324;8.032;2023-07-13T13:43:14;5.82;;;3.95;;
60344;SDS011;46188;52.324;8.032;2023-07-13T13:45:41;6.82;;;4.38;;
60344;SDS011;46188;52.324;8.032;2023-07-13T13:48:07;6.07;;;4.72;;
60344;SDS011;46188;52.324;8.032;2023-07-13T13:50:39;8.70;;;5.30;;
60344;SDS011;46188;52.324;8.032;2023-07-13T13:53:04;9.35;;;5.03;;
60344;SDS011;46188;52.324;8.032;2023-07-13T13:55:29;8.10;;;4.70;;
60344;SDS011;46188;52.324;8.032;2023-07-13T13:57:54;7.22;;;4.72;;
60344;SDS011;46188;52.324;8.032;2023-07-13T14:00:20;8.03;;;5.23;;
60344;SDS011;46188;52.324;8.032;2023-07-13T14:02:46;8.85;;;5.20;;
60344;SDS011;46188;52.324;8.032;2023-07-13T14:05:14;7.70;;;5.28;;
60344;SDS011;46188;52.324;8.032;2023-07-13T14:07:44;5.53;;;4.60;;
60344;SDS011;46188;52.324;8.032;2023-07-13T14:10:11;9.52;;;5.57;;
60344;SDS011;46188;52.324;8.032;2023-07-13T14:12:39;6.35;;;4.80;;
60344;SDS011;46188;52.324;8.032;2023-07-13T14:15:05;8.10;;;4.60;;
60344;SDS011;46188;52.324;8.032;2023-07-13T14:17:31;5.30;;;4.22;;
60344;SDS011;46188;52.324;8.032;2023-07-13T14:19:57;9.43;;;4.72;;
60344;SDS011;46188;52.324;8.032;2023-07-13T14:22:24;8.43;;;4.72;;
60344;SDS011;46188;52.324;8.032;2023-07-13T14:24:51;6.93;;;4.70;;
60344;SDS011;46188;52.324;8.032;2023-07-13T14:27:20;8.63;;;5.32;;
60344;SDS011;46188;52.324;8.032;2023-07-13T14:29:46;7.63;;;4.78;;
60344;SDS011;46188;52.324;8.032;2023-07-13T14:32:12;8.68;;;4.43;;
60344;SDS011;46188;52.324;8.032;2023-07-13T14:34:38;10.85;;;5.25;;
60344;SDS011;46188;52.324;8.032;2023-07-13T14:37:04;7.03;;;4.85;;
60344;SDS011;46188;52.324;8.032;2023-07-13T14:39:30;7.13;;;4.70;;
60344;SDS011;46188;52.324;8.032;2023-07-13T14:41:56;7.50;;;5.15;;
60344;SDS011;46188;52.324;8.032;2023-07-13T14:44:31;7.38;;;4.40;;
60344;SDS011;46188;52.324;8.032;2023-07-13T14:46:57;8.18;;;4.80;;
60344;SDS011;46188;52.324;8.032;2023-07-13T14:49:27;7.97;;;5.05;;
60344;SDS011;46188;52.324;8.032;2023-07-13T14:51:58;9.98;;;5.32;;
60344;SDS011;46188;52.324;8.032;2023-07-13T14:54:25;8.32;;;5.60;;
60344;SDS011;46188;52.324;8.032;2023-07-13T14:56:50;6.70;;;5.22;;
60344;SDS011;46188;52.324;8.032;2023-07-13T14:59:15;11.13;;;5.47;;
60344;SDS011;46188;52.324;8.032;2023-07-13T15:01:44;9.68;;;5.70;;
60344;SDS011;46188;52.324;8.032;2023-07-13T15:04:09;8.82;;;4.80;;
60344;SDS011;46188;52.324;8.032;2023-07-13T15:09:24;7.93;;;5.45;;
60344;SDS011;46188;52.324;8.032;2023-07-13T15:11:51;5.00;;;3.28;;
60344;SDS011;46188;52.324;8.032;2023-07-13T15:14:17;5.90;;;3.10;;
60344;SDS011;46188;52.324;8.032;2023-07-13T15:16:49;6.83;;;3.70;;
60344;SDS011;46188;52.324;8.032;2023-07-13T15:19:16;6.10;;;3.22;;